sensor_id;sensor_type;location;lat;lon;timestamp;pressure;altitude;pressure_sealevel;temperature;humidity
41690;BME280;27372;42.658;23.256;2023-02-28T00:00:22;94203.09;;;6.90;100.00
41690;BME280;27372;42.658;23.256;2023-02-28T00:02:48;94196.88;;;6.97;100.00
41690;BME280;27372;42.658;23.256;2023-02-28T00:05:16;94218.97;;;6.88;100.00
41690;BME280;27372;42.658;23.256;2023-02-28T00:07:42;94216.16;;;6.70;100.00
41690;BME280;27372;42.658;23.256;2023-02-28T00:10:13;94216.97;;;6.83;100.00
41690;BME280;27372;42.658;23.256;2023-02-28T00:12:39;94214.53;;;6.95;100.00
41690;BME280;27372;42.658;23.256;2023-02-28T00:15:10;94217.53;;;7.12;100.00
41690;BME280;27372;42.658;23.256;2023-02-28T00:17:37;94226.13;;;7.33;100.00
41690;BME280;27372;42.658;23.256;2023-02-28T00:20:04;94226.75;;;7.28;100.00
41690;BME280;27372;42.658;23.256;2023-02-28T00:22:30;94233.00;;;7.07;100.00
41690;BME280;27372;42.658;23.256;2023-02-28T00:24:55;94234.25;;;6.91;100.00
41690;BME280;27372;42.658;23.256;2023-02-28T00:27:20;94232.03;;;7.02;100.00
41690;BME280;27372;42.658;23.256;2023-02-28T00:29:46;94228.19;;;6.91;100.00
41690;BME280;27372;42.658;23.256;2023-02-28T00:32:12;94236.22;;;6.69;100.00
41690;BME280;27372;42.658;23.256;2023-02-28T00:34:37;94236.03;;;6.57;100.00
41690;BME280;27372;42.658;23.256;2023-02-28T00:37:07;94233.00;;;6.33;100.00
41690;BME280;27372;42.658;23.256;2023-02-28T00:39:36;94236.44;;;6.67;100.00
41690;BME280;27372;42.658;23.256;2023-02-28T00:42:03;94230.81;;;6.97;100.00
41690;BME280;27372;42.658;23.256;2023-02-28T00:44:29;94234.41;;;7.10;100.00
41690;BME280;27372;42.658;23.256;2023-02-28T00:46:55;94230.78;;;7.18;100.00
41690;BME280;27372;42.658;23.256;2023-02-28T00:49:22;94230.59;;;7.26;100.00
41690;BME280;27372;42.658;23.256;2023-02-28T00:51:48;94231.78;;;7.23;100.00
41690;BME280;27372;42.658;23.256;2023-02-28T00:54:14;94236.97;;;7.37;100.00
41690;BME280;27372;42.658;23.256;2023-02-28T00:56:40;94229.31;;;7.49;100.00
41690;BME280;27372;42.658;23.256;2023-02-28T00:59:05;94226.28;;;7.45;100.00
41690;BME280;27372;42.658;23.256;2023-02-28T01:01:31;94228.28;;;7.50;100.00
41690;BME280;27372;42.658;23.256;2023-02-28T01:03:56;94224.66;;;7.57;100.00
41690;BME280;27372;42.658;23.256;2023-02-28T01:06:22;94220.66;;;7.55;100.00
41690;BME280;27372;42.658;23.256;2023-02-28T01:08:47;94219.22;;;7.59;100.00
41690;BME280;27372;42.658;23.256;2023-02-28T01:11:15;94225.91;;;7.48;100.00
41690;BME280;27372;42.658;23.256;2023-02-28T01:13:42;94226.28;;;7.45;100.00
41690;BME280;27372;42.658;23.256;2023-02-28T01:16:07;94226.69;;;7.49;100.00
41690;BME280;27372;42.658;23.256;2023-02-28T01:18:33;94219.56;;;7.69;100.00
41690;BME280;27372;42.658;23.256;2023-02-28T01:21:12;94225.78;;;7.82;100.00
41690;BME280;27372;42.658;23.256;2023-02-28T01:23:39;94222.53;;;7.86;99.00
41690;BME280;27372;42.658;23.256;2023-02-28T01:26:06;94229.22;;;7.82;98.41
41690;BME280;27372;42.658;23.256;2023-02-28T01:28:32;94225.03;;;7.68;98.26
41690;BME280;27372;42.658;23.256;2023-02-28T01:30:58;94215.78;;;7.65;97.98
41690;BME280;27372;42.658;23.256;2023-02-28T01:33:23;94210.63;;;7.45;99.93
41690;BME280;27372;42.658;23.256;2023-02-28T01:35:48;94216.47;;;7.34;100.00
41690;BME280;27372;42.658;23.256;2023-02-28T01:38:14;94224.75;;;7.30;100.00
41690;BME280;27372;42.658;23.256;2023-02-28T01:40:39;94221.31;;;7.37;100.00
41690;BME280;27372;42.658;23.256;2023-02-28T01:43:19;94227.72;;;7.41;100.00
41690;BME280;27372;42.658;23.256;2023-02-28T01:45:45;94231.75;;;7.43;100.00
41690;BME280;27372;42.658;23.256;2023-02-28T01:48:11;94229.72;;;7.45;99.72
41690;BME280;27372;42.658;23.256;2023-02-28T01:50:41;94228.34;;;7.29;99.17
41690;BME280;27372;42.658;23.256;2023-02-28T01:53:13;94226.75;;;7.35;99.01
41690;BME280;27372;42.658;23.256;2023-02-28T01:55:40;94224.75;;;7.24;99.14
41690;BME280;27372;42.658;23.256;2023-02-28T01:58:08;94230.97;;;7.36;98.50
41690;BME280;27372;42.658;23.256;2023-02-28T02:00:34;94243.03;;;7.17;98.72
41690;BME280;27372;42.658;23.256;2023-02-28T02:03:05;94225.38;;;7.19;98.53
41690;BME280;27372;42.658;23.256;2023-02-28T02:05:32;94219.94;;;7.07;99.03
41690;BME280;27372;42.658;23.256;2023-02-28T02:08:04;94221.97;;;6.98;99.71
41690;BME280;27372;42.658;23.256;2023-02-28T02:10:34;94225.97;;;7.21;99.61
41690;BME280;27372;42.658;23.256;2023-02-28T02:16:04;94231.19;;;7.21;98.40
41690;BME280;27372;42.658;23.256;2023-02-28T02:18:50;94223.75;;;7.11;99.12
41690;BME280;27372;42.658;23.256;2023-02-28T02:24:48;94212.94;;;6.94;99.43
41690;BME280;27372;42.658;23.256;2023-02-28T02:35:25;94223.75;;;7.18;100.00
41690;BME280;27372;42.658;23.256;2023-02-28T02:38:05;94233.00;;;7.21;100.00
41690;BME280;27372;42.658;23.256;2023-02-28T02:40:38;94218.75;;;7.17;100.00
41690;BME280;27372;42.658;23.256;2023-02-28T02:43:14;94227.34;;;7.30;99.91
41690;BME280;27372;42.658;23.256;2023-02-28T02:45:46;94231.38;;;7.13;100.00
41690;BME280;27372;42.658;23.256;2023-02-28T02:48:16;94227.59;;;7.09;100.00
41690;BME280;27372;42.658;23.256;2023-02-28T02:50:48;94236.03;;;7.11;99.49
41690;BME280;27372;42.658;23.256;2023-02-28T02:53:16;94224.38;;;7.07;99.55
41690;BME280;27372;42.658;23.256;2023-02-28T02:55:45;94235.22;;;7.10;100.00
41690;BME280;27372;42.658;23.256;2023-02-28T02:58:15;94238.22;;;7.14;100.00
41690;BME280;27372;42.658;23.256;2023-02-28T03:00:48;94238.47;;;6.79;100.00
41690;BME280;27372;42.658;23.256;2023-02-28T03:03:18;94242.25;;;6.49;100.00
41690;BME280;27372;42.658;23.256;2023-02-28T03:05:50;94241.84;;;6.79;100.00
41690;BME280;27372;42.658;23.256;2023-02-28T03:08:16;94243.47;;;6.94;100.00
41690;BME280;27372;42.658;23.256;2023-02-28T03:10:46;94242.44;;;7.08;100.00
41690;BME280;27372;42.658;23.256;2023-02-28T03:21:43;94270.00;;;7.11;100.00
41690;BME280;27372;42.658;23.256;2023-02-28T03:27:11;94272.81;;;6.89;100.00
41690;BME280;27372;42.658;23.256;2023-02-28T03:29:47;94266.19;;;6.80;100.00
41690;BME280;27372;42.658;23.256;2023-02-28T03:32:25;94266.75;;;6.68;100.00
41690;BME280;27372;42.658;23.256;2023-02-28T03:35:17;94267.56;;;6.76;100.00
41690;BME280;27372;42.658;23.256;2023-02-28T03:37:50;94273.19;;;6.79;100.00
41690;BME280;27372;42.658;23.256;2023-02-28T03:40:20;94274.41;;;6.77;100.00
41690;BME280;27372;42.658;23.256;2023-02-28T03:42:49;94279.59;;;6.63;100.00
41690;BME280;27372;42.658;23.256;2023-02-28T03:45:37;94274.38;;;6.63;100.00
41690;BME280;27372;42.658;23.256;2023-02-28T03:48:31;94275.19;;;6.57;100.00
41690;BME280;27372;42.658;23.256;2023-02-28T03:51:01;94284.41;;;6.60;100.00
41690;BME280;27372;42.658;23.256;2023-02-28T03:53:36;94282.63;;;6.53;100.00
41690;BME280;27372;42.658;23.256;2023-02-28T03:56:06;94298.03;;;6.48;100.00
41690;BME280;27372;42.658;23.256;2023-02-28T03:58:57;94293.41;;;6.44;100.00
41690;BME280;27372;42.658;23.256;2023-02-28T04:01:38;94276.38;;;6.48;100.00
41690;BME280;27372;42.658;23.256;2023-02-28T04:04:07;94280.34;;;6.37;100.00
41690;BME280;27372;42.658;23.256;2023-02-28T04:06:33;94283.16;;;6.35;100.00
41690;BME280;27372;42.658;23.256;2023-02-28T04:08:59;94283.22;;;6.49;100.00
41690;BME280;27372;42.658;23.256;2023-02-28T04:11:50;94287.44;;;6.63;100.00
41690;BME280;27372;42.658;23.256;2023-02-28T04:14:19;94275.78;;;6.59;100.00
41690;BME280;27372;42.658;23.256;2023-02-28T04:16:45;94275.38;;;6.42;100.00
41690;BME280;27372;42.658;23.256;2023-02-28T04:19:11;94290.19;;;6.42;100.00
41690;BME280;27372;42.658;23.256;2023-02-28T04:21:40;94281.38;;;6.43;100.00
41690;BME280;27372;42.658;23.256;2023-02-28T04:24:06;94278.38;;;6.52;100.00
41690;BME280;27372;42.658;23.256;2023-02-28T04:26:35;94269.75;;;6.59;100.00
41690;BME280;27372;42.658;23.256;2023-02-28T04:29:02;94279.00;;;6.75;100.00
41690;BME280;27372;42.658;23.256;2023-02-28T04:31:28;94278.22;;;6.81;100.00
41690;BME280;27372;42.658;23.256;2023-02-28T04:33:53;94274.59;;;6.82;100.00
41690;BME280;27372;42.658;23.256;2023-02-28T04:36:19;94270.41;;;6.81;100.00
41690;BME280;27372;42.658;23.256;2023-02-28T04:38:45;94284.44;;;6.93;100.00
41690;BME280;27372;42.658;23.256;2023-02-28T04:41:11;94281.22;;;6.98;100.00
41690;BME280;27372;42.658;23.256;2023-02-28T04:43:37;94281.22;;;6.78;100.00
41690;BME280;27372;42.658;23.256;2023-02-28T04:46:04;94288.47;;;6.89;100.00
41690;BME280;27372;42.658;23.256;2023-02-28T04:48:31;94291.69;;;6.91;100.00
41690;BME280;27372;42.658;23.256;2023-02-28T04:51:01;94296.09;;;6.91;100.00
41690;BME280;27372;42.658;23.256;2023-02-28T04:53:27;94298.31;;;7.01;100.00
41690;BME280;27372;42.658;23.256;2023-02-28T04:55:54;94296.91;;;7.05;100.00
41690;BME280;27372;42.658;23.256;2023-02-28T04:58:19;94317.81;;;6.91;100.00
41690;BME280;27372;42.658;23.256;2023-02-28T05:00:48;94313.38;;;6.85;100.00
41690;BME280;27372;42.658;23.256;2023-02-28T05:03:13;94308.97;;;6.86;100.00
41690;BME280;27372;42.658;23.256;2023-02-28T05:05:39;94320.00;;;7.08;100.00
41690;BME280;27372;42.658;23.256;2023-02-28T05:08:04;94311.56;;;6.79;100.00
41690;BME280;27372;42.658;23.256;2023-02-28T05:10:30;94309.34;;;6.89;100.00
41690;BME280;27372;42.658;23.256;2023-02-28T05:12:56;94313.75;;;6.89;100.00
41690;BME280;27372;42.658;23.256;2023-02-28T05:15:21;94314.97;;;6.93;100.00
41690;BME280;27372;42.658;23.256;2023-02-28T05:17:47;94314.38;;;6.97;100.00
41690;BME280;27372;42.658;23.256;2023-02-28T05:20:12;94308.53;;;6.95;100.00
41690;BME280;27372;42.658;23.256;2023-02-28T05:22:39;94323.63;;;7.07;100.00
41690;BME280;27372;42.658;23.256;2023-02-28T05:25:05;94319.38;;;6.92;100.00
41690;BME280;27372;42.658;23.256;2023-02-28T05:27:31;94331.25;;;7.08;100.00
41690;BME280;27372;42.658;23.256;2023-02-28T05:29:56;94331.47;;;7.13;99.88
41690;BME280;27372;42.658;23.256;2023-02-28T05:32:22;94328.63;;;7.15;99.78
41690;BME280;27372;42.658;23.256;2023-02-28T05:34:47;94331.47;;;7.07;98.65
41690;BME280;27372;42.658;23.256;2023-02-28T05:37:13;94335.47;;;7.29;97.59
41690;BME280;27372;42.658;23.256;2023-02-28T05:39:40;94331.06;;;7.10;98.68
41690;BME280;27372;42.658;23.256;2023-02-28T05:42:05;94342.31;;;7.17;98.25
41690;BME280;27372;42.658;23.256;2023-02-28T05:44:31;94344.72;;;7.25;97.59
41690;BME280;27372;42.658;23.256;2023-02-28T05:46:57;94341.50;;;7.23;97.43
41690;BME280;27372;42.658;23.256;2023-02-28T05:49:22;94328.06;;;6.99;98.16
41690;BME280;27372;42.658;23.256;2023-02-28T05:51:48;94334.47;;;7.17;98.92
41690;BME280;27372;42.658;23.256;2023-02-28T05:54:13;94355.19;;;7.39;97.67
41690;BME280;27372;42.658;23.256;2023-02-28T05:56:39;94345.13;;;7.36;97.13
41690;BME280;27372;42.658;23.256;2023-02-28T05:59:06;94343.50;;;7.35;96.96
41690;BME280;27372;42.658;23.256;2023-02-28T06:01:37;94340.50;;;7.38;96.87
41690;BME280;27372;42.658;23.256;2023-02-28T06:04:05;94346.91;;;7.55;96.00
41690;BME280;27372;42.658;23.256;2023-02-28T06:06:31;94352.94;;;7.63;95.38
41690;BME280;27372;42.658;23.256;2023-02-28T06:08:59;94356.97;;;7.58;95.01
41690;BME280;27372;42.658;23.256;2023-02-28T06:11:26;94335.06;;;7.46;95.59
41690;BME280;27372;42.658;23.256;2023-02-28T06:13:59;94347.31;;;7.59;95.11
41690;BME280;27372;42.658;23.256;2023-02-28T06:16:27;94345.50;;;7.59;95.78
41690;BME280;27372;42.658;23.256;2023-02-28T06:18:53;94346.72;;;7.57;94.63
41690;BME280;27372;42.658;23.256;2023-02-28T06:21:21;94344.69;;;7.59;94.87
41690;BME280;27372;42.658;23.256;2023-02-28T06:23:46;94340.50;;;7.51;94.69
41690;BME280;27372;42.658;23.256;2023-02-28T06:26:12;94337.88;;;7.31;94.75
41690;BME280;27372;42.658;23.256;2023-02-28T06:28:37;94358.56;;;7.33;95.90
41690;BME280;27372;42.658;23.256;2023-02-28T06:31:13;94354.78;;;7.35;95.83
41690;BME280;27372;42.658;23.256;2023-02-28T06:33:40;94367.63;;;7.37;96.15
41690;BME280;27372;42.658;23.256;2023-02-28T06:36:07;94370.25;;;7.57;95.32
41690;BME280;27372;42.658;23.256;2023-02-28T06:38:33;94368.63;;;7.63;94.63
41690;BME280;27372;42.658;23.256;2023-02-28T06:41:00;94369.44;;;7.70;95.22
41690;BME280;27372;42.658;23.256;2023-02-28T06:43:28;94361.97;;;7.67;94.70
41690;BME280;27372;42.658;23.256;2023-02-28T06:45:58;94375.22;;;7.78;94.67
41690;BME280;27372;42.658;23.256;2023-02-28T06:48:26;94371.97;;;7.97;93.81
41690;BME280;27372;42.658;23.256;2023-02-28T06:50:51;94378.41;;;8.07;93.54
41690;BME280;27372;42.658;23.256;2023-02-28T06:53:16;94376.78;;;8.13;92.88
41690;BME280;27372;42.658;23.256;2023-02-28T06:55:42;94376.19;;;7.98;92.81
41690;BME280;27372;42.658;23.256;2023-02-28T06:58:07;94378.81;;;7.98;93.19
41690;BME280;27372;42.658;23.256;2023-02-28T07:00:41;94387.66;;;8.03;93.37
41690;BME280;27372;42.658;23.256;2023-02-28T07:03:07;94369.56;;;8.08;93.62
41690;BME280;27372;42.658;23.256;2023-02-28T07:05:34;94373.72;;;8.23;92.97
41690;BME280;27372;42.658;23.256;2023-02-28T07:08:00;94373.91;;;8.28;93.19
41690;BME280;27372;42.658;23.256;2023-02-28T07:10:25;94376.72;;;8.27;93.21
41690;BME280;27372;42.658;23.256;2023-02-28T07:12:51;94375.13;;;8.26;92.92
41690;BME280;27372;42.658;23.256;2023-02-28T07:15:16;94376.72;;;8.27;92.81
41690;BME280;27372;42.658;23.256;2023-02-28T07:17:42;94388.75;;;8.41;91.78
41690;BME280;27372;42.658;23.256;2023-02-28T07:20:07;94382.94;;;8.32;92.43
41690;BME280;27372;42.658;23.256;2023-02-28T07:22:33;94388.19;;;8.32;92.22
41690;BME280;27372;42.658;23.256;2023-02-28T07:24:58;94379.31;;;8.33;92.34
41690;BME280;27372;42.658;23.256;2023-02-28T07:27:24;94386.31;;;8.46;92.14
41690;BME280;27372;42.658;23.256;2023-02-28T07:29:51;94382.47;;;8.55;92.11
41690;BME280;27372;42.658;23.256;2023-02-28T07:32:16;94390.31;;;8.55;92.00
41690;BME280;27372;42.658;23.256;2023-02-28T07:34:42;94393.19;;;8.47;92.04
41690;BME280;27372;42.658;23.256;2023-02-28T07:37:10;94386.75;;;8.43;92.55
41690;BME280;27372;42.658;23.256;2023-02-28T07:39:36;94384.94;;;8.37;92.75
41690;BME280;27372;42.658;23.256;2023-02-28T07:45:24;94389.16;;;8.45;92.00
41690;BME280;27372;42.658;23.256;2023-02-28T07:47:49;94381.16;;;8.33;92.24
41690;BME280;27372;42.658;23.256;2023-02-28T07:50:15;94382.31;;;8.50;92.66
41690;BME280;27372;42.658;23.256;2023-02-28T07:52:41;94383.91;;;8.58;92.07
41690;BME280;27372;42.658;23.256;2023-02-28T07:55:07;94380.84;;;8.61;91.15
41690;BME280;27372;42.658;23.256;2023-02-28T07:57:33;94373.38;;;8.65;91.26
41690;BME280;27372;42.658;23.256;2023-02-28T07:59:59;94363.31;;;8.68;90.76
41690;BME280;27372;42.658;23.256;2023-02-28T08:02:24;94377.75;;;8.78;90.01
41690;BME280;27372;42.658;23.256;2023-02-28T08:04:50;94377.03;;;8.64;90.90
41690;BME280;27372;42.658;23.256;2023-02-28T08:07:16;94374.72;;;8.29;91.01
41690;BME280;27372;42.658;23.256;2023-02-28T08:09:44;94369.75;;;8.07;92.77
41690;BME280;27372;42.658;23.256;2023-02-28T08:12:10;94383.28;;;7.64;94.65
41690;BME280;27372;42.658;23.256;2023-02-28T08:14:36;94384.13;;;7.37;98.29
41690;BME280;27372;42.658;23.256;2023-02-28T08:17:03;94388.75;;;7.35;98.62
41690;BME280;27372;42.658;23.256;2023-02-28T08:19:29;94374.47;;;7.31;98.90
41690;BME280;27372;42.658;23.256;2023-02-28T08:21:55;94377.47;;;7.28;98.68
41690;BME280;27372;42.658;23.256;2023-02-28T08:24:21;94387.31;;;7.06;99.75
41690;BME280;27372;42.658;23.256;2023-02-28T08:26:46;94379.84;;;7.03;100.00
41690;BME280;27372;42.658;23.256;2023-02-28T08:29:12;94388.88;;;6.80;100.00
41690;BME280;27372;42.658;23.256;2023-02-28T08:31:37;94395.31;;;6.84;100.00
41690;BME280;27372;42.658;23.256;2023-02-28T08:34:07;94385.75;;;7.32;100.00
41690;BME280;27372;42.658;23.256;2023-02-28T08:36:33;94391.94;;;7.64;100.00
41690;BME280;27372;42.658;23.256;2023-02-28T08:38:58;94403.41;;;7.83;99.58
41690;BME280;27372;42.658;23.256;2023-02-28T08:41:25;94398.59;;;7.60;98.82
41690;BME280;27372;42.658;23.256;2023-02-28T08:43:51;94405.03;;;7.64;99.56
41690;BME280;27372;42.658;23.256;2023-02-28T08:46:16;94396.34;;;7.90;98.61
41690;BME280;27372;42.658;23.256;2023-02-28T08:48:42;94393.72;;;7.90;99.03
41690;BME280;27372;42.658;23.256;2023-02-28T08:51:11;94396.47;;;8.22;97.50
41690;BME280;27372;42.658;23.256;2023-02-28T08:53:38;94387.78;;;8.35;96.89
41690;BME280;27372;42.658;23.256;2023-02-28T08:56:06;94402.22;;;8.45;95.36
41690;BME280;27372;42.658;23.256;2023-02-28T08:58:33;94402.03;;;8.53;94.39
41690;BME280;27372;42.658;23.256;2023-02-28T09:00:59;94402.84;;;8.53;93.71
41690;BME280;27372;42.658;23.256;2023-02-28T09:03:25;94403.16;;;8.70;94.27
41690;BME280;27372;42.658;23.256;2023-02-28T09:05:56;94405.13;;;8.82;94.18
41690;BME280;27372;42.658;23.256;2023-02-28T09:08:24;94397.75;;;8.65;94.15
41690;BME280;27372;42.658;23.256;2023-02-28T09:10:50;94397.78;;;8.52;95.33
41690;BME280;27372;42.658;23.256;2023-02-28T09:13:16;94396.34;;;8.63;95.62
41690;BME280;27372;42.658;23.256;2023-02-28T09:15:41;94389.88;;;8.72;94.92
41690;BME280;27372;42.658;23.256;2023-02-28T09:18:07;94391.19;;;8.88;93.88
41690;BME280;27372;42.658;23.256;2023-02-28T09:20:32;94389.56;;;8.94;92.57
41690;BME280;27372;42.658;23.256;2023-02-28T09:22:58;94391.34;;;8.93;93.36
41690;BME280;27372;42.658;23.256;2023-02-28T09:25:23;94388.81;;;9.12;92.27
41690;BME280;27372;42.658;23.256;2023-02-28T09:27:48;94395.16;;;9.29;91.70
41690;BME280;27372;42.658;23.256;2023-02-28T09:30:14;94379.31;;;9.43;91.81
41690;BME280;27372;42.658;23.256;2023-02-28T09:32:40;94376.19;;;9.59;91.65
41690;BME280;27372;42.658;23.256;2023-02-28T09:35:05;94377.81;;;9.79;90.67
41690;BME280;27372;42.658;23.256;2023-02-28T09:37:31;94382.06;;;9.99;88.32
41690;BME280;27372;42.658;23.256;2023-02-28T09:39:57;94383.72;;;9.93;88.67
41690;BME280;27372;42.658;23.256;2023-02-28T09:42:29;94380.09;;;9.94;88.39
41690;BME280;27372;42.658;23.256;2023-02-28T09:44:57;94382.72;;;9.94;89.10
41690;BME280;27372;42.658;23.256;2023-02-28T09:47:33;94388.94;;;10.00;89.89
41690;BME280;27372;42.658;23.256;2023-02-28T09:50:14;94379.28;;;9.93;90.19
41690;BME280;27372;42.658;23.256;2023-02-28T09:52:45;94378.97;;;9.83;90.75
41690;BME280;27372;42.658;23.256;2023-02-28T09:57:50;94374.88;;;9.69;92.50
41690;BME280;27372;42.658;23.256;2023-02-28T10:00:30;94374.69;;;9.89;91.68
41690;BME280;27372;42.658;23.256;2023-02-28T10:05:34;94384.16;;;9.90;89.55
41690;BME280;27372;42.658;23.256;2023-02-28T10:08:11;94373.97;;;10.00;90.23
41690;BME280;27372;42.658;23.256;2023-02-28T10:10:44;94370.78;;;10.17;89.98
41690;BME280;27372;42.658;23.256;2023-02-28T10:15:47;94364.88;;;10.21;88.79
41690;BME280;27372;42.658;23.256;2023-02-28T10:18:21;94367.34;;;10.16;88.71
41690;BME280;27372;42.658;23.256;2023-02-28T10:20:50;94356.56;;;10.43;87.47
41690;BME280;27372;42.658;23.256;2023-02-28T10:26:00;94356.69;;;10.97;86.50
41690;BME280;27372;42.658;23.256;2023-02-28T10:28:25;94346.34;;;11.26;85.06
41690;BME280;27372;42.658;23.256;2023-02-28T10:30:53;94344.66;;;11.44;84.85
41690;BME280;27372;42.658;23.256;2023-02-28T10:33:28;94341.00;;;11.69;83.04
41690;BME280;27372;42.658;23.256;2023-02-28T10:35:54;94340.88;;;11.87;82.32
41690;BME280;27372;42.658;23.256;2023-02-28T10:38:24;94329.91;;;12.02;81.35
41690;BME280;27372;42.658;23.256;2023-02-28T10:40:50;94323.34;;;12.29;80.61
41690;BME280;27372;42.658;23.256;2023-02-28T10:45:55;94328.06;;;12.84;77.32
41690;BME280;27372;42.658;23.256;2023-02-28T11:01:43;94291.44;;;13.17;74.78
41690;BME280;27372;42.658;23.256;2023-02-28T11:07:17;94291.88;;;12.97;75.94
41690;BME280;27372;42.658;23.256;2023-02-28T11:09:46;94284.69;;;12.92;75.17
41690;BME280;27372;42.658;23.256;2023-02-28T11:14:49;94285.22;;;13.40;74.45
41690;BME280;27372;42.658;23.256;2023-02-28T11:17:21;94283.91;;;13.26;73.74
41690;BME280;27372;42.658;23.256;2023-02-28T11:19:52;94276.09;;;13.31;72.56
41690;BME280;27372;42.658;23.256;2023-02-28T11:22:21;94275.66;;;13.05;72.69
41690;BME280;27372;42.658;23.256;2023-02-28T11:24:51;94262.34;;;13.29;72.55
41690;BME280;27372;42.658;23.256;2023-02-28T11:30:00;94262.97;;;13.92;70.40
41690;BME280;27372;42.658;23.256;2023-02-28T11:32:29;94268.75;;;14.11;69.52
41690;BME280;27372;42.658;23.256;2023-02-28T11:35:12;94268.66;;;14.51;68.44
41690;BME280;27372;42.658;23.256;2023-02-28T11:37:39;94255.84;;;14.65;67.26
41690;BME280;27372;42.658;23.256;2023-02-28T11:40:15;94266.72;;;14.68;66.74
41690;BME280;27372;42.658;23.256;2023-02-28T11:45:31;94260.34;;;14.91;64.82
41690;BME280;27372;42.658;23.256;2023-02-28T11:48:18;94255.69;;;14.49;65.69
41690;BME280;27372;42.658;23.256;2023-02-28T11:50:56;94259.16;;;15.10;65.50
41690;BME280;27372;42.658;23.256;2023-02-28T11:53:49;94254.44;;;15.49;65.30
41690;BME280;27372;42.658;23.256;2023-02-28T12:01:56;94250.19;;;15.91;60.83
41690;BME280;27372;42.658;23.256;2023-02-28T12:07:29;94248.84;;;16.63;58.82
41690;BME280;27372;42.658;23.256;2023-02-28T12:18:26;94242.88;;;15.66;61.35
41690;BME280;27372;42.658;23.256;2023-02-28T12:21:14;94239.28;;;15.40;61.94
41690;BME280;27372;42.658;23.256;2023-02-28T12:24:14;94233.59;;;15.63;61.75
41690;BME280;27372;42.658;23.256;2023-02-28T12:26:46;94240.97;;;14.86;62.04
41690;BME280;27372;42.658;23.256;2023-02-28T12:29:32;94239.78;;;14.99;61.77
41690;BME280;27372;42.658;23.256;2023-02-28T12:32:05;94243.94;;;15.27;60.83
41690;BME280;27372;42.658;23.256;2023-02-28T12:34:35;94232.84;;;14.93;61.23
41690;BME280;27372;42.658;23.256;2023-02-28T12:37:07;94245.25;;;14.65;61.38
41690;BME280;27372;42.658;23.256;2023-02-28T12:39:43;94241.13;;;14.19;62.40
41690;BME280;27372;42.658;23.256;2023-02-28T12:42:19;94240.09;;;13.59;65.82
41690;BME280;27372;42.658;23.256;2023-02-28T12:44:58;94230.06;;;13.22;67.86
41690;BME280;27372;42.658;23.256;2023-02-28T12:47:24;94237.63;;;13.18;69.18
41690;BME280;27372;42.658;23.256;2023-02-28T12:52:28;94228.16;;;13.00;71.03
41690;BME280;27372;42.658;23.256;2023-02-28T12:55:08;94210.88;;;13.09;70.96
41690;BME280;27372;42.658;23.256;2023-02-28T13:00:21;94224.31;;;12.91;69.92
41690;BME280;27372;42.658;23.256;2023-02-28T13:02:57;94232.59;;;12.99;70.92
41690;BME280;27372;42.658;23.256;2023-02-28T13:08:23;94225.03;;;12.86;71.82
41690;BME280;27372;42.658;23.256;2023-02-28T13:10:53;94223.09;;;12.64;72.72
41690;BME280;27372;42.658;23.256;2023-02-28T13:13:26;94218.97;;;12.39;73.11
41690;BME280;27372;42.658;23.256;2023-02-28T13:16:10;94233.03;;;12.16;73.25
41690;BME280;27372;42.658;23.256;2023-02-28T13:18:46;94228.28;;;11.89;73.64
41690;BME280;27372;42.658;23.256;2023-02-28T13:21:29;94211.19;;;12.16;74.41
41690;BME280;27372;42.658;23.256;2023-02-28T13:34:32;94212.84;;;11.93;73.01
41690;BME280;27372;42.658;23.256;2023-02-28T13:47:39;94194.72;;;12.54;71.08
41690;BME280;27372;42.658;23.256;2023-02-28T13:58:37;94196.59;;;11.43;74.14
41690;BME280;27372;42.658;23.256;2023-02-28T14:01:17;94196.44;;;11.50;74.76
41690;BME280;27372;42.658;23.256;2023-02-28T14:06:35;94173.25;;;11.35;74.80
41690;BME280;27372;42.658;23.256;2023-02-28T14:11:35;94174.09;;;11.24;76.33
41690;BME280;27372;42.658;23.256;2023-02-28T14:14:02;94177.19;;;11.09;77.02
41690;BME280;27372;42.658;23.256;2023-02-28T14:16:37;94168.03;;;10.87;76.89
41690;BME280;27372;42.658;23.256;2023-02-28T14:19:24;94178.53;;;10.99;77.20
41690;BME280;27372;42.658;23.256;2023-02-28T14:28:03;94167.25;;;10.87;77.47
41690;BME280;27372;42.658;23.256;2023-02-28T14:33:31;94174.88;;;10.77;78.02
41690;BME280;27372;42.658;23.256;2023-02-28T14:36:04;94165.34;;;10.52;79.64
41690;BME280;27372;42.658;23.256;2023-02-28T14:38:36;94173.56;;;10.44;79.25
41690;BME280;27372;42.658;23.256;2023-02-28T14:41:14;94169.22;;;10.37;78.66
41690;BME280;27372;42.658;23.256;2023-02-28T14:43:55;94163.97;;;10.37;78.40
41690;BME280;27372;42.658;23.256;2023-02-28T14:46:23;94179.59;;;10.44;79.16
41690;BME280;27372;42.658;23.256;2023-02-28T14:48:50;94172.47;;;10.63;78.82
41690;BME280;27372;42.658;23.256;2023-02-28T14:51:21;94172.22;;;10.65;78.61
41690;BME280;27372;42.658;23.256;2023-02-28T14:53:57;94172.81;;;10.67;79.39
41690;BME280;27372;42.658;23.256;2023-02-28T14:56:36;94167.53;;;10.55;78.64
41690;BME280;27372;42.658;23.256;2023-02-28T14:59:03;94162.16;;;10.50;79.74
41690;BME280;27372;42.658;23.256;2023-02-28T15:01:29;94158.31;;;10.34;80.01
41690;BME280;27372;42.658;23.256;2023-02-28T15:04:06;94159.13;;;10.34;80.85
41690;BME280;27372;42.658;23.256;2023-02-28T15:06:39;94165.66;;;10.32;80.67
41690;BME280;27372;42.658;23.256;2023-02-28T15:09:15;94156.94;;;10.19;81.05
41690;BME280;27372;42.658;23.256;2023-02-28T15:11:46;94152.63;;;9.94;82.49
41690;BME280;27372;42.658;23.256;2023-02-28T15:14:21;94164.31;;;10.10;81.76
41690;BME280;27372;42.658;23.256;2023-02-28T15:16:52;94156.00;;;10.14;81.71
41690;BME280;27372;42.658;23.256;2023-02-28T15:19:29;94159.81;;;9.99;82.19
41690;BME280;27372;42.658;23.256;2023-02-28T15:22:02;94170.56;;;9.98;83.44